Forside
METAR-TAF:

METAR-TAF

Lufthavne :

Kostanay, Kasakhstan

Breddekreds: 53-12-23N, længdekreds: 063-33-03E, højde: 182 m

Aktuelle vejr

Denne rapport blev lavet for 22 minutter siden, kl. 14:00 UTC
Vind 17 kt fra nordnordøst
Temperatur 28°C
Fugtighed 48%
Tryk 1006 hPa
Sigt 10 km eller mere
ingen skyer under 1500m og ingen cumulonimbus

METAR: UAUU 201400Z 02009MPS CAVOK 28/16 Q1006 R33/CLRD70 TEMPO 04018MPS RMK QFE739/0985

Tid: 20:22 (14:22 UTC)

Vejrudsigter

Denne rapport blev lavet for 3 timer og 22 minutter siden, kl. 11:00 UTC
Foreløbig gælder fra 20 på 12 UTC til 20 på 21 UTC
Vind 16 kt fra nordøst
Sigt 10 km eller mere
Brudte skyer i en højde af 2000 ft, Cumulonimbus.
Midlertidig
fra 20 på 12 UTC til 20 på 14 UTC
Vind 29 kt fra nordnordøst
Midlertidig
fra 20 på 14 UTC til 20 på 21 UTC
Vind 33 kt fra varierende retninger
Sigt: 3100 m
tordenbyger, let regn, vindstød

TAF: UAUU 201100Z 2012/2021 04008MPS 9999 BKN020CB TEMPO 2012/2014 03015MPS TEMPO 2014/2021 VRB17MPS 3100 -TSRA SQ

Vejrobservationer og prognoser fra mere end 4000 lufthavne (METAR og TAF).

De gule og røde prikker repræsenterer de meteorologiske stationer.

Flyt musen over at se navnet på stationen.

Så klik over at se vejr observationer og prognoser.

At skifte det kort: Klik på de grønne knapper med et sort kors for at zoome ind; på den grønne knap med en bindestreg for at zoome ud; eller på de grønne pile for tilstødende kort.


METAR-TAF: